Voyageurs Natl Park, Minnesota
Current Conditions -  °F | °C
As of 7:55 AM on Thursday 18 Dec 2014 (Local Time) from KINL Reporting Station
Clear Clear  
Wind Chill: -1°   Ceiling: Unl
Heat Index: -1°   Visibility: 10mi
Dew Point: -5°   Wind: 3mph
Humidity: 83%   Direction: 110°ESE
Pressure: 30.29"   Gusts: NA
Location:  48.5°N, 93°W
Report Text: KINL 181355Z AUTO 11003KT 10SM CLR M18/M21 A3029 RMK AO2 SLP291 T11831206
Loading
Personal Weather Stations






























Interactive Weather Map New forecast layout! Learn more

10-Day Weather Forecast

Advertisements
Track Severe Weather on mobile